Time;durP1;ratioP1;P1;durP2;ratioP2;P2;SDS_P1;SDS_P2;PMS_P1;PMS_P2;Temp;Humidity;BMP_temperature;BMP_pressure;BME280_temperature;BME280_humidity;BME280_pressure;Samples;Min_cycle;Max_cycle;Signal;HPM_P1;HPM_P2
2023/03/10 00:01:20;;;;;;;3.80;2.50;;;16.20;60.40;17.30;98026.00;;;;5009073;28;20775;-43
2023/03/10 00:03:46;;;;;;;3.10;2.40;;;16.20;60.30;17.30;98016.00;;;;5009063;28;20308;-43
2023/03/10 00:06:14;;;;;;;2.70;2.07;;;16.20;60.30;17.30;98013.00;;;;5008769;28;20202;-43
2023/03/10 00:08:40;;;;;;;3.57;2.33;;;16.30;60.50;17.30;98014.00;;;;5007717;28;20180;-43
2023/03/10 00:11:05;;;;;;;3.17;2.10;;;16.20;60.40;17.30;98013.00;;;;5008644;28;20191;-43
2023/03/10 00:13:31;;;;;;;3.03;2.20;;;16.20;60.50;17.30;98010.00;;;;5009029;28;20174;-43
2023/03/10 00:15:57;;;;;;;3.93;2.13;;;16.20;60.40;17.30;98009.00;;;;5009024;28;20182;-42
2023/03/10 00:18:23;;;;;;;2.37;2.17;;;16.20;60.50;17.30;98008.00;;;;5008984;28;20225;-43
2023/03/10 00:20:52;;;;;;;3.13;2.10;;;16.20;60.40;17.30;98007.00;;;;5009089;28;20264;-43
2023/03/10 00:23:19;;;;;;;2.93;2.13;;;16.20;60.50;17.30;98011.00;;;;5008544;28;20645;-43
2023/03/10 00:25:44;;;;;;;3.80;2.00;;;16.20;60.50;17.30;98016.00;;;;5009650;28;20181;-42
2023/03/10 00:28:10;;;;;;;2.97;2.00;;;16.10;60.40;17.30;97999.00;;;;5009576;28;20248;-44
2023/03/10 00:30:36;;;;;;;2.30;1.97;;;16.10;60.50;17.30;98006.00;;;;5008778;28;20545;-43
2023/03/10 00:33:02;;;;;;;2.57;2.10;;;16.10;60.50;17.20;97998.00;;;;5008441;28;20187;-44
2023/03/10 00:35:27;;;;;;;2.10;1.90;;;16.10;60.50;17.20;98008.00;;;;5008797;28;20175;-43
2023/03/10 00:37:54;;;;;;;2.83;2.10;;;16.20;60.70;17.20;98005.00;;;;5008441;28;20187;-43
2023/03/10 00:40:21;;;;;;;2.80;2.00;;;16.10;60.50;17.20;98007.00;;;;5008694;28;20174;-42
2023/03/10 00:42:46;;;;;;;3.00;2.10;;;16.10;60.50;17.20;98012.00;;;;5008522;28;20221;-43
2023/03/10 00:45:12;;;;;;;2.23;1.90;;;16.10;60.50;17.20;98026.00;;;;5008693;28;20183;-43
2023/03/10 00:47:38;;;;;;;3.43;2.23;;;16.10;60.50;17.20;98029.00;;;;5008049;28;20212;-43
2023/03/10 00:50:04;;;;;;;2.50;1.90;;;16.10;60.50;17.20;98023.00;;;;5007618;28;20177;-44
2023/03/10 00:52:33;;;;;;;2.20;2.00;;;16.10;60.50;17.20;98033.00;;;;5008048;28;20226;-44
2023/03/10 00:54:58;;;;;;;2.37;2.00;;;16.10;60.70;17.20;98024.00;;;;5008037;28;20179;-44
2023/03/10 00:57:25;;;;;;;3.37;2.00;;;16.10;60.70;17.20;98006.00;;;;5008106;28;20258;-43
2023/03/10 00:59:51;;;;;;;2.80;1.83;;;16.10;60.70;17.20;98008.00;;;;5008083;28;20178;-43
2023/03/10 01:02:18;;;;;;;2.23;1.97;;;16.10;60.60;17.20;98000.00;;;;5007991;28;20685;-43
2023/03/10 01:04:44;;;;;;;2.70;1.73;;;16.10;60.70;17.20;98008.00;;;;5008367;28;20188;-44
2023/03/10 01:07:09;;;;;;;2.23;2.00;;;16.10;60.60;17.20;98010.00;;;;5009037;28;20201;-44
2023/03/10 01:09:35;;;;;;;2.50;1.90;;;16.10;60.60;17.10;98002.00;;;;5008913;28;20591;-43
2023/03/10 01:12:01;;;;;;;2.13;1.70;;;16.10;60.70;17.10;97994.00;;;;5007971;28;20175;-44
2023/03/10 01:14:26;;;;;;;2.33;1.93;;;16.00;60.50;17.10;97997.00;;;;5008217;28;20179;-43
2023/03/10 01:16:52;;;;;;;3.17;1.70;;;16.00;60.60;17.10;97997.00;;;;5008425;28;20203;-43
2023/03/10 01:19:18;;;;;;;2.57;2.00;;;16.00;60.60;17.10;98002.00;;;;5008611;28;20185;-43
2023/03/10 01:21:44;;;;;;;1.77;1.67;;;16.00;60.60;17.10;97993.00;;;;5008169;28;20676;-42
2023/03/10 01:24:14;;;;;;;1.70;1.60;;;16.00;60.60;17.10;97993.00;;;;5007861;28;20191;-42
2023/03/10 01:26:39;;;;;;;2.17;1.80;;;16.00;60.60;17.10;97990.00;;;;5006806;28;20636;-43
2023/03/10 01:29:05;;;;;;;2.23;1.73;;;16.00;60.70;17.10;97999.00;;;;5007867;28;20178;-45
2023/03/10 01:31:31;;;;;;;2.43;1.83;;;16.00;60.70;17.10;98006.00;;;;5007824;28;20168;-43
2023/03/10 01:33:57;;;;;;;2.07;1.80;;;16.00;60.70;17.10;98006.00;;;;5007853;28;20222;-43
2023/03/10 01:36:25;;;;;;;2.23;1.70;;;16.00;60.70;17.10;98008.00;;;;5007843;28;20193;-44
2023/03/10 01:38:51;;;;;;;1.93;1.70;;;16.00;60.80;17.10;97992.00;;;;5007744;28;20726;-43
2023/03/10 01:41:17;;;;;;;2.07;1.80;;;16.00;60.80;17.10;98005.00;;;;5007431;28;20180;-43
2023/03/10 01:43:48;;;;;;;1.97;1.77;;;16.00;60.80;17.10;97992.00;;;;5007696;28;20176;-42
2023/03/10 01:46:34;;;;;;;2.10;1.77;;;16.00;60.70;17.10;97990.00;;;;5007651;28;20629;-43
2023/03/10 01:49:23;;;;;;;1.63;1.43;;;16.00;60.80;17.00;97986.00;;;;5007789;28;20164;-45
2023/03/10 01:52:01;;;;;;;2.17;1.60;;;16.00;60.80;17.10;97985.00;;;;5007301;28;20182;-43
2023/03/10 01:54:41;;;;;;;1.60;1.50;;;16.00;60.80;17.00;97991.00;;;;5006682;28;20281;-43
2023/03/10 01:57:06;;;;;;;1.70;1.60;;;16.00;60.80;17.00;97984.00;;;;5006506;28;20676;-45
2023/03/10 01:59:32;;;;;;;2.07;1.83;;;16.00;60.80;17.00;97977.00;;;;4987012;28;20297;-43
2023/03/10 02:01:58;;;;;;;1.87;1.77;;;16.00;60.80;17.00;97988.00;;;;5006155;28;20234;-42
2023/03/10 02:04:39;;;;;;;2.53;1.83;;;15.90;60.70;17.00;97973.00;;;;4993622;28;20267;-43
2023/03/10 02:07:05;;;;;;;1.77;1.67;;;15.90;60.70;17.00;97987.00;;;;5009891;28;20212;-43
2023/03/10 02:09:34;;;;;;;1.70;1.60;;;16.00;60.80;17.00;97983.00;;;;5011187;28;20686;-43
2023/03/10 02:11:59;;;;;;;1.90;1.70;;;15.90;60.70;17.00;97991.00;;;;5009728;28;20655;-43
2023/03/10 02:14:25;;;;;;;1.70;1.60;;;15.90;60.70;17.00;97993.00;;;;5009657;28;20179;-43
2023/03/10 02:16:51;;;;;;;1.60;1.50;;;15.90;60.70;17.00;98003.00;;;;5010640;28;20210;-43
2023/03/10 02:19:46;;;;;;;1.57;1.37;;;15.90;60.70;17.00;98012.00;;;;5009539;28;20181;-43
2023/03/10 02:22:14;;;;;;;1.67;1.57;;;15.90;60.70;17.00;98008.00;;;;5010651;28;20176;-42
2023/03/10 02:25:36;;;;;;;2.60;1.77;;;15.90;60.70;17.00;97996.00;;;;5010296;28;20192;-43
2023/03/10 02:28:02;;;;;;;2.00;1.60;;;15.90;61.10;17.00;98006.00;;;;5009423;28;20689;-44
2023/03/10 02:30:40;;;;;;;2.37;1.70;;;15.80;61.10;17.00;98016.00;;;;5009552;28;20180;-45
2023/03/10 02:33:12;;;;;;;1.60;1.47;;;15.90;61.30;16.90;98001.00;;;;5009601;28;20214;-44
2023/03/10 02:35:38;;;;;;;1.60;1.50;;;15.90;61.30;17.00;98006.00;;;;5009527;28;20203;-43
2023/03/10 02:38:04;;;;;;;1.67;1.50;;;15.90;61.30;17.00;97997.00;;;;5010425;28;20196;-43
2023/03/10 02:40:48;;;;;;;1.70;1.60;;;15.80;61.10;17.00;97990.00;;;;5010714;28;20242;-43
2023/03/10 02:43:31;;;;;;;1.57;1.37;;;15.80;61.10;17.00;97986.00;;;;5009284;28;20650;-43
2023/03/10 02:46:00;;;;;;;1.60;1.50;;;15.80;61.10;17.00;97987.00;;;;5009210;28;20750;-43
2023/03/10 02:48:28;;;;;;;1.30;1.20;;;15.90;61.20;16.90;97996.00;;;;5009142;28;20670;-45
2023/03/10 02:50:54;;;;;;;1.47;1.37;;;15.80;61.10;17.00;97991.00;;;;5010116;28;20173;-43
2023/03/10 02:53:23;;;;;;;1.70;1.60;;;15.90;61.20;17.00;97998.00;;;;5010226;28;20172;-44
2023/03/10 02:55:49;;;;;;;1.30;1.20;;;15.80;61.10;17.00;97988.00;;;;5010046;28;20223;-43
2023/03/10 02:58:15;;;;;;;1.50;1.30;;;15.90;61.20;17.00;98004.00;;;;5010223;28;20199;-43
2023/03/10 03:00:42;;;;;;;1.50;1.40;;;15.80;61.10;17.00;97976.00;;;;5010354;28;20181;-42
2023/03/10 03:03:08;;;;;;;1.97;1.47;;;15.80;61.10;16.90;97982.00;;;;5009020;28;20188;-43
2023/03/10 03:05:34;;;;;;;1.40;1.30;;;15.80;61.10;16.90;97978.00;;;;5010118;28;20175;-43
2023/03/10 03:08:00;;;;;;;1.40;1.30;;;15.80;61.10;16.90;97979.00;;;;5009770;28;20192;-43
2023/03/10 03:10:26;;;;;;;1.50;1.40;;;15.80;61.10;16.90;97973.00;;;;5009763;28;20183;-43
2023/03/10 03:12:51;;;;;;;2.43;1.63;;;15.80;61.10;16.90;97984.00;;;;5008164;28;20168;-43
2023/03/10 03:15:17;;;;;;;1.40;1.30;;;15.80;61.00;16.90;97980.00;;;;5009917;28;20259;-43
2023/03/10 03:17:43;;;;;;;1.43;1.33;;;15.80;61.00;16.90;97985.00;;;;5009666;28;20200;-43
2023/03/10 03:20:12;;;;;;;1.37;1.27;;;15.80;61.10;16.90;97971.00;;;;5009689;28;20595;-42
2023/03/10 03:22:39;;;;;;;1.63;1.33;;;15.80;61.10;16.90;97970.00;;;;5007998;28;20236;-43
2023/03/10 03:25:05;;;;;;;1.60;1.50;;;15.80;61.00;16.90;97971.00;;;;5009510;28;20195;-44
2023/03/10 03:27:31;;;;;;;1.40;1.40;;;15.80;61.00;16.90;97971.00;;;;5009447;28;20214;-44
2023/03/10 03:29:58;;;;;;;1.70;1.47;;;15.80;60.90;16.90;97970.00;;;;5009268;28;20175;-44
2023/03/10 03:32:23;;;;;;;1.40;1.30;;;15.80;61.00;16.90;97966.00;;;;5009351;28;20225;-44
2023/03/10 03:34:49;;;;;;;1.80;1.30;;;15.80;60.90;16.90;97977.00;;;;5009192;28;20172;-44
2023/03/10 03:37:15;;;;;;;1.57;1.47;;;15.80;60.90;16.90;97978.00;;;;5009183;28;20202;-44
2023/03/10 03:39:40;;;;;;;1.47;1.37;;;15.80;60.90;16.90;97973.00;;;;5009429;28;20183;-44
2023/03/10 03:42:06;;;;;;;1.40;1.30;;;15.80;61.70;16.90;97966.00;;;;5009458;28;20588;-43
2023/03/10 03:44:32;;;;;;;1.13;1.13;;;15.80;60.90;16.90;97972.00;;;;5009594;28;20204;-43
2023/03/10 03:46:58;;;;;;;1.40;1.30;;;15.80;60.90;16.90;97966.00;;;;5009184;28;20204;-43
2023/03/10 03:49:24;;;;;;;1.43;1.33;;;15.80;60.90;16.90;97966.00;;;;5009294;28;20180;-43
2023/03/10 03:51:49;;;;;;;1.40;1.30;;;15.80;60.80;16.90;97954.00;;;;5008923;28;20222;-44
2023/03/10 03:54:15;;;;;;;1.30;1.20;;;15.80;60.90;16.90;97952.00;;;;5009258;28;20179;-43
2023/03/10 03:56:41;;;;;;;1.23;1.13;;;15.70;60.70;16.90;97957.00;;;;5009243;28;20578;-44
2023/03/10 03:59:06;;;;;;;1.47;1.37;;;15.80;60.90;16.90;97962.00;;;;5008838;28;20190;-44
2023/03/10 04:01:32;;;;;;;1.40;1.30;;;15.80;60.90;16.90;97954.00;;;;5009000;28;20268;-43
2023/03/10 04:03:58;;;;;;;1.40;1.30;;;15.80;60.90;16.90;97952.00;;;;5009011;28;20182;-45
2023/03/10 04:06:23;;;;;;;1.13;1.10;;;15.70;60.70;16.90;97951.00;;;;5007639;28;20199;-43
2023/03/10 04:08:49;;;;;;;1.40;1.30;;;15.70;60.70;16.90;97947.00;;;;5009100;28;20183;-45
2023/03/10 04:11:15;;;;;;;1.10;1.10;;;15.70;60.70;16.80;97945.00;;;;5008723;28;20277;-44
2023/03/10 04:13:42;;;;;;;1.40;1.30;;;15.70;60.70;16.90;97943.00;;;;5008912;28;20181;-43
2023/03/10 04:16:08;;;;;;;1.50;1.40;;;15.70;60.60;16.80;97950.00;;;;5008872;28;20972;-44
2023/03/10 04:18:33;;;;;;;1.60;1.40;;;15.70;60.70;16.90;97947.00;;;;5008845;28;20262;-43
2023/03/10 04:20:59;;;;;;;1.00;1.00;;;15.80;60.70;16.80;97941.00;;;;5008371;28;20766;-44
2023/03/10 04:23:25;;;;;;;1.50;1.17;;;15.70;60.70;16.80;97945.00;;;;5006510;28;20200;-44
2023/03/10 04:25:50;;;;;;;1.43;1.30;;;15.70;60.80;16.80;97934.00;;;;5007832;28;20187;-43
2023/03/10 04:28:16;;;;;;;3.47;1.30;;;15.70;60.90;16.80;97933.00;;;;5010450;28;20207;-43
2023/03/10 04:30:44;;;;;;;4.80;1.37;;;15.70;61.10;16.80;97932.00;;;;5011414;28;20664;-43
2023/03/10 04:33:10;;;;;;;4.30;1.70;;;15.70;61.20;16.80;97932.00;;;;5011192;28;20652;-44
2023/03/10 04:35:41;;;;;;;2.83;1.43;;;15.70;61.30;16.80;97927.00;;;;5009355;28;20199;-44
2023/03/10 04:38:07;;;;;;;1.57;1.40;;;15.70;61.00;16.80;97921.00;;;;5008445;28;20193;-44
2023/03/10 04:40:33;;;;;;;4.00;1.33;;;15.70;61.00;16.80;97919.00;;;;5008360;28;20521;-44
2023/03/10 04:42:58;;;;;;;2.33;1.33;;;15.70;61.00;16.80;97918.00;;;;5008358;28;20215;-43
2023/03/10 04:45:24;;;;;;;1.47;1.20;;;15.70;61.00;16.80;97909.00;;;;5007416;28;20230;-44
2023/03/10 04:47:50;;;;;;;1.90;1.50;;;15.70;60.90;16.80;97903.00;;;;5009425;28;20210;-44
2023/03/10 04:50:16;;;;;;;4.33;1.53;;;15.70;61.00;16.80;97906.00;;;;5009426;28;20176;-43
2023/03/10 04:52:44;;;;;;;3.63;1.90;;;15.70;60.90;16.80;97913.00;;;;5009200;28;20168;-43
2023/03/10 04:55:11;;;;;;;1.87;1.40;;;15.70;60.90;16.80;97905.00;;;;5009106;28;20596;-44
2023/03/10 04:57:36;;;;;;;2.10;1.30;;;15.70;60.80;16.80;97908.00;;;;5008953;28;20555;-43
2023/03/10 05:00:06;;;;;;;2.57;1.20;;;15.70;60.70;16.80;97902.00;;;;5008592;28;20184;-43
2023/03/10 05:02:33;;;;;;;1.93;1.50;;;15.70;60.70;16.80;97910.00;;;;5009046;28;20206;-43
2023/03/10 05:05:00;;;;;;;2.20;1.20;;;15.70;60.60;16.80;97918.00;;;;5006570;28;20179;-43
2023/03/10 05:07:26;;;;;;;4.13;1.50;;;15.70;60.60;16.80;97910.00;;;;5004148;28;20201;-43
2023/03/10 05:09:52;;;;;;;1.93;1.20;;;15.70;60.60;16.70;97914.00;;;;5008111;28;20172;-43
2023/03/10 05:12:18;;;;;;;2.07;1.30;;;15.70;60.60;16.70;97912.00;;;;5008876;28;20178;-44
2023/03/10 05:14:44;;;;;;;1.60;1.17;;;15.70;60.60;16.70;97917.00;;;;5008448;28;20172;-43
2023/03/10 05:17:10;;;;;;;3.37;1.30;;;15.60;60.40;16.70;97903.00;;;;5008348;28;20222;-44
2023/03/10 05:19:35;;;;;;;1.20;1.10;;;15.60;60.40;16.70;97897.00;;;;5008237;28;20255;-43
2023/03/10 05:22:03;;;;;;;2.43;1.60;;;15.60;60.50;16.50;97904.00;;;;5007768;28;20726;-43
2023/03/10 05:24:28;;;;;;;1.43;1.30;;;15.60;60.70;16.70;97906.00;;;;5008291;28;20224;-42
2023/03/10 05:26:54;;;;;;;1.60;1.50;;;15.60;60.70;16.70;97907.00;;;;5008413;28;20286;-44
2023/03/10 05:29:20;;;;;;;2.13;1.37;;;15.60;60.70;16.70;97832.00;;;;5008365;28;20195;-43
2023/03/10 05:31:46;;;;;;;1.43;1.33;;;15.60;61.80;16.70;97900.00;;;;5001442;28;20707;-43
2023/03/10 05:34:13;;;;;;;1.07;1.03;;;15.60;61.20;16.70;97896.00;;;;5006780;28;20314;-43
2023/03/10 05:36:39;;;;;;;3.43;1.40;;;15.60;61.20;16.70;97897.00;;;;5010008;28;20385;-43
2023/03/10 05:39:05;;;;;;;3.00;1.50;;;15.60;61.20;16.70;97890.00;;;;5009998;28;20211;-43
2023/03/10 05:41:32;;;;;;;2.47;1.50;;;15.60;61.30;16.70;97882.00;;;;5010198;28;20172;-43
2023/03/10 05:43:57;;;;;;;1.60;1.30;;;15.60;61.20;16.70;97887.00;;;;5010930;28;20175;-43
2023/03/10 05:46:23;;;;;;;1.03;1.03;;;15.60;61.10;16.70;97882.00;;;;5010991;28;20256;-43
2023/03/10 05:48:49;;;;;;;2.40;1.20;;;15.60;61.30;16.70;97877.00;;;;5011629;28;20406;-43
2023/03/10 05:51:15;;;;;;;1.63;1.20;;;15.60;61.30;16.70;97814.00;;;;5011470;28;20180;-43
2023/03/10 05:53:41;;;;;;;1.47;1.37;;;15.50;61.30;16.70;97878.00;;;;5011807;28;20252;-44
2023/03/10 05:56:12;;;;;;;5.17;1.23;;;15.60;61.40;16.60;97885.00;;;;5010792;28;20207;-43
2023/03/10 05:58:38;;;;;;;3.73;1.20;;;15.50;61.90;16.60;97878.00;;;;5011703;28;20608;-43
2023/03/10 06:01:04;;;;;;;3.70;1.40;;;15.60;62.00;16.60;97883.00;;;;5010753;28;20254;-44
2023/03/10 06:03:30;;;;;;;3.13;1.60;;;15.60;61.80;16.60;97887.00;;;;5011476;28;20183;-44
2023/03/10 06:05:56;;;;;;;2.33;1.20;;;15.60;61.70;16.60;97885.00;;;;5011308;28;20176;-44
2023/03/10 06:08:23;;;;;;;3.30;1.80;;;15.60;61.70;16.60;97886.00;;;;5011117;28;20207;-44
2023/03/10 06:10:49;;;;;;;6.47;1.40;;;15.60;61.60;16.60;97884.00;;;;5010874;28;20698;-44
2023/03/10 06:13:18;;;;;;;2.90;1.23;;;15.50;61.50;16.60;97887.00;;;;5010144;28;20203;-45
2023/03/10 06:15:57;;;;;;;2.37;1.20;;;15.50;61.40;16.60;97870.00;;;;5011687;28;20172;-44
2023/03/10 06:18:23;;;;;;;1.70;1.40;;;15.50;61.30;16.60;97884.00;;;;5011585;28;20199;-43
2023/03/10 06:20:49;;;;;;;2.50;1.23;;;15.50;61.30;16.60;97888.00;;;;5011134;28;20241;-42
2023/03/10 06:23:15;;;;;;;2.97;1.30;;;15.50;61.30;16.60;97883.00;;;;5009643;28;20631;-43
2023/03/10 06:25:41;;;;;;;1.40;1.20;;;15.60;61.40;16.60;97886.00;;;;5011292;28;20203;-43
2023/03/10 06:28:07;;;;;;;2.20;1.40;;;15.60;61.30;16.60;97888.00;;;;5010965;28;20242;-43
2023/03/10 06:30:32;;;;;;;1.43;1.20;;;15.50;61.30;16.60;97882.00;;;;5009709;28;20176;-43
2023/03/10 06:32:59;;;;;;;1.40;1.30;;;15.50;61.20;16.60;97882.00;;;;5010772;28;20176;-43
2023/03/10 06:35:25;;;;;;;2.70;1.23;;;15.50;61.20;16.60;97895.00;;;;5011347;28;20179;-44
2023/03/10 06:37:51;;;;;;;1.27;1.17;;;15.50;61.20;16.60;97883.00;;;;5011025;28;20449;-44
2023/03/10 06:40:17;;;;;;;1.20;1.10;;;15.50;61.30;16.60;97881.00;;;;5010463;28;20183;-43
2023/03/10 06:42:43;;;;;;;2.93;1.40;;;15.50;61.20;16.60;97878.00;;;;5010924;28;20176;-43
2023/03/10 06:45:10;;;;;;;1.73;1.33;;;15.50;61.20;16.60;97886.00;;;;5010965;28;20172;-43
2023/03/10 06:47:36;;;;;;;1.20;1.10;;;15.50;61.30;16.60;97883.00;;;;5008396;28;20207;-44
2023/03/10 06:50:01;;;;;;;1.30;1.20;;;15.50;61.10;16.40;97889.00;;;;5010291;28;20259;-44
2023/03/10 06:52:27;;;;;;;1.63;1.30;;;15.50;61.20;16.60;97893.00;;;;5009601;28;20176;-44
2023/03/10 06:54:53;;;;;;;1.73;1.40;;;15.50;61.20;16.60;97900.00;;;;5010999;28;20179;-44
2023/03/10 06:57:19;;;;;;;1.37;1.27;;;15.50;61.20;16.60;97896.00;;;;5011109;28;20200;-44
2023/03/10 06:59:44;;;;;;;1.77;1.43;;;15.50;61.20;16.60;97910.00;;;;5010134;28;20175;-43
2023/03/10 07:02:13;;;;;;;1.07;0.97;;;15.50;61.10;16.60;97895.00;;;;5010199;28;20172;-43
2023/03/10 07:04:40;;;;;;;1.00;1.00;;;15.50;61.20;16.60;97893.00;;;;5010524;28;20314;-43
2023/03/10 07:07:05;;;;;;;1.47;1.23;;;15.50;61.20;16.60;97884.00;;;;5010499;28;20345;-43
2023/03/10 07:09:31;;;;;;;0.87;0.87;;;15.50;61.20;16.60;97899.00;;;;5010204;28;20172;-42
2023/03/10 07:11:57;;;;;;;1.40;1.30;;;15.50;61.10;16.60;97895.00;;;;5009987;28;20182;-43
2023/03/10 07:14:22;;;;;;;0.90;0.90;;;15.40;60.90;16.60;97896.00;;;;5010420;28;20650;-43
2023/03/10 07:16:48;;;;;;;1.20;1.10;;;15.40;61.00;16.60;97907.00;;;;5009816;28;20215;-42
2023/03/10 07:19:14;;;;;;;1.20;1.10;;;15.40;61.10;16.60;97899.00;;;;5009902;28;20258;-43
2023/03/10 07:21:40;;;;;;;1.60;1.30;;;15.40;61.10;16.50;97901.00;;;;5009953;28;20184;-43
2023/03/10 07:24:05;;;;;;;1.10;1.00;;;15.50;61.20;16.50;97901.00;;;;5009922;28;20192;-42
2023/03/10 07:26:31;;;;;;;0.83;0.83;;;15.40;61.10;16.50;97903.00;;;;5010064;28;20326;-42
2023/03/10 07:28:57;;;;;;;1.13;1.03;;;15.40;61.10;16.50;97908.00;;;;5008681;28;20167;-43
2023/03/10 07:31:22;;;;;;;2.13;1.30;;;15.40;61.00;16.50;97912.00;;;;5009891;28;20184;-43
2023/03/10 07:33:48;;;;;;;1.47;1.37;;;15.40;61.00;16.50;97919.00;;;;5010204;28;20171;-43
2023/03/10 07:36:16;;;;;;;1.57;1.47;;;15.40;61.00;16.60;97915.00;;;;5010060;28;20172;-44
2023/03/10 07:38:42;;;;;;;1.87;1.50;;;15.40;61.00;16.50;97920.00;;;;5009976;28;20168;-43
2023/03/10 07:41:09;;;;;;;1.03;1.03;;;15.40;61.00;16.50;97916.00;;;;5009561;28;21807;-42
2023/03/10 07:43:35;;;;;;;1.23;1.13;;;15.40;61.10;16.50;97916.00;;;;5009920;28;20171;-43
2023/03/10 07:46:12;;;;;;;1.27;1.10;;;15.40;60.90;16.50;97925.00;;;;5009999;28;20288;-43
2023/03/10 07:48:38;;;;;;;1.63;1.30;;;15.40;61.00;16.50;97930.00;;;;5010104;28;20217;-43
2023/03/10 07:51:04;;;;;;;1.23;1.13;;;15.40;61.00;16.50;97924.00;;;;5009332;28;20646;-43
2023/03/10 07:53:30;;;;;;;1.33;1.23;;;15.40;61.10;16.50;97921.00;;;;5009777;28;20168;-43
2023/03/10 07:55:56;;;;;;;0.90;0.90;;;15.40;61.00;16.50;97922.00;;;;5009273;28;20179;-43
2023/03/10 07:58:22;;;;;;;1.20;1.13;;;15.40;61.00;16.50;97930.00;;;;5009650;28;20196;-43
2023/03/10 08:00:57;;;;;;;0.77;0.77;;;15.40;61.00;16.50;97918.00;;;;5009187;28;20227;-43
2023/03/10 08:03:24;;;;;;;1.30;1.27;;;15.40;61.00;16.50;97923.00;;;;5008488;28;20186;-43
2023/03/10 08:05:50;;;;;;;1.20;1.10;;;15.40;61.00;16.50;97914.00;;;;5009080;28;20259;-44
2023/03/10 08:08:15;;;;;;;2.33;1.17;;;15.40;61.00;16.50;97927.00;;;;5009205;28;20194;-43
2023/03/10 08:10:41;;;;;;;1.10;1.00;;;15.40;61.10;16.50;97926.00;;;;5009472;28;20242;-44
2023/03/10 08:13:07;;;;;;;1.27;1.07;;;15.40;61.10;16.50;97926.00;;;;5009304;28;20178;-43
2023/03/10 08:15:32;;;;;;;1.20;1.10;;;15.40;61.10;16.50;97922.00;;;;5009483;28;20177;-43
2023/03/10 08:18:00;;;;;;;1.30;1.20;;;15.40;61.10;16.50;97928.00;;;;5009011;28;20645;-43
2023/03/10 08:20:26;;;;;;;1.50;1.40;;;15.40;61.10;16.50;97939.00;;;;5009302;28;20167;-44
2023/03/10 08:22:52;;;;;;;1.33;1.20;;;15.40;61.10;16.50;97943.00;;;;5008689;28;20605;-42
2023/03/10 08:25:18;;;;;;;1.00;1.00;;;15.40;61.10;16.50;97945.00;;;;5009624;28;20176;-43
2023/03/10 08:27:45;;;;;;;1.00;0.90;;;15.40;61.10;16.50;97936.00;;;;5009285;28;20770;-43
2023/03/10 08:30:11;;;;;;;1.50;1.40;;;15.40;61.10;16.50;97940.00;;;;5008300;28;20260;-43
2023/03/10 08:32:37;;;;;;;2.63;1.10;;;15.40;61.10;16.50;97942.00;;;;5001750;28;20184;-44
2023/03/10 08:35:04;;;;;;;3.53;1.30;;;15.40;61.50;16.50;97941.00;;;;5001175;28;20246;-44
2023/03/10 08:37:30;;;;;;;1.20;1.10;;;15.40;61.80;16.50;97937.00;;;;5007827;28;20195;-45
2023/03/10 08:39:57;;;;;;;2.17;1.30;;;15.40;61.80;16.50;97939.00;;;;5011520;28;20556;-45
2023/03/10 08:42:23;;;;;;;1.40;1.30;;;15.40;62.20;16.50;97935.00;;;;5009457;28;20188;-46
2023/03/10 08:44:49;;;;;;;5.03;1.50;;;15.40;62.00;16.50;97932.00;;;;5008398;28;20410;-44
2023/03/10 08:47:15;;;;;;;2.67;1.20;;;15.40;62.00;16.50;97934.00;;;;5007024;28;20640;-46
2023/03/10 08:49:40;;;;;;;3.40;1.70;;;15.50;62.30;16.50;97930.00;;;;5007078;28;20175;-44
2023/03/10 08:52:08;;;;;;;2.27;1.40;;;15.50;62.30;16.50;97935.00;;;;5007343;28;20176;-45
2023/03/10 08:54:34;;;;;;;2.10;1.50;;;15.60;62.30;16.60;97935.00;;;;5006409;28;20658;-46
2023/03/10 08:57:00;;;;;;;1.90;1.37;;;15.60;62.10;16.60;97931.00;;;;5007444;28;20435;-46
2023/03/10 08:59:26;;;;;;;4.13;1.23;;;15.70;62.20;16.60;97933.00;;;;5007329;28;20175;-46
2023/03/10 09:01:52;;;;;;;1.40;1.30;;;15.80;62.20;16.70;97934.00;;;;5000937;28;20179;-46
2023/03/10 09:04:18;;;;;;;2.33;1.27;;;15.80;62.20;16.70;97939.00;;;;5004178;28;20495;-46
2023/03/10 09:06:44;;;;;;;4.83;1.60;;;15.90;62.30;16.80;97943.00;;;;5006643;28;20252;-47
2023/03/10 09:09:10;;;;;;;7.40;1.70;;;15.90;62.60;16.80;97943.00;;;;5006982;28;20191;-46
2023/03/10 09:11:36;;;;;;;3.23;1.40;;;16.00;63.00;16.90;97946.00;;;;5009295;28;20225;-47
2023/03/10 09:14:02;;;;;;;2.07;1.23;;;16.10;63.00;16.90;97941.00;;;;5003338;28;20535;-45
2023/03/10 09:16:28;;;;;;;1.60;1.37;;;16.10;62.60;17.00;97946.00;;;;5007492;28;20858;-45
2023/03/10 09:18:55;;;;;;;2.80;1.27;;;16.20;62.70;17.00;97947.00;;;;5006240;28;20232;-46
2023/03/10 09:21:21;;;;;;;1.40;1.30;;;16.20;62.70;17.10;97946.00;;;;5007712;28;20187;-47
2023/03/10 09:23:48;;;;;;;1.47;1.27;;;16.30;62.70;17.10;97941.00;;;;5008470;28;20195;-44
2023/03/10 09:26:14;;;;;;;1.50;0.93;;;16.20;62.60;17.10;97948.00;;;;5006633;28;20208;-45
2023/03/10 09:28:40;;;;;;;2.00;1.00;;;16.30;62.50;17.20;97952.00;;;;5005077;28;20179;-45
2023/03/10 09:31:06;;;;;;;1.47;1.07;;;16.30;62.50;17.20;97955.00;;;;5009363;28;20288;-45
2023/03/10 09:33:32;;;;;;;1.10;1.00;;;16.30;62.50;17.20;97951.00;;;;5012752;28;20548;-45
2023/03/10 09:35:58;;;;;;;1.27;1.17;;;16.30;62.50;17.20;97961.00;;;;5011518;28;20176;-45
2023/03/10 09:38:24;;;;;;;2.50;1.60;;;16.30;62.30;17.30;97962.00;;;;5012307;28;20227;-46
2023/03/10 09:41:17;;;;;;;4.77;1.40;;;16.40;62.50;17.30;97952.00;;;;5012792;28;20183;-47
2023/03/10 09:44:22;;;;;;;2.83;1.53;;;16.40;62.40;17.30;97956.00;;;;5011601;28;20544;-46
2023/03/10 09:47:09;;;;;;;2.10;1.67;;;16.40;62.40;16.90;97956.00;;;;5011437;28;20216;-46
2023/03/10 09:49:37;;;;;;;1.30;1.20;;;16.40;62.30;17.30;97953.00;;;;5012327;28;20267;-45
2023/03/10 09:52:21;;;;;;;2.13;1.30;;;16.40;62.20;17.40;97956.00;;;;5010799;28;20274;-45
2023/03/10 09:55:17;;;;;;;2.40;1.30;;;16.40;62.20;17.30;97944.00;;;;5010854;28;20273;-46
2023/03/10 09:57:43;;;;;;;1.30;1.10;;;16.50;62.30;17.40;97949.00;;;;5011947;28;20196;-45
2023/03/10 10:00:10;;;;;;;2.17;1.30;;;16.50;62.30;17.40;97958.00;;;;5010360;28;20275;-46
2023/03/10 10:02:41;;;;;;;2.73;1.17;;;16.40;62.30;17.40;97954.00;;;;5010751;28;20214;-46
2023/03/10 10:05:20;;;;;;;1.47;1.37;;;16.50;62.40;17.40;97947.00;;;;5011124;28;20188;-45
2023/03/10 10:07:50;;;;;;;1.77;1.40;;;16.50;62.50;17.40;97941.00;;;;5010764;28;20681;-45
2023/03/10 10:10:21;;;;;;;1.63;1.10;;;16.50;62.50;17.40;97929.00;;;;5011064;28;20168;-46
2023/03/10 10:12:48;;;;;;;1.93;1.07;;;16.50;62.30;17.40;97944.00;;;;5010267;28;20175;-46
2023/03/10 10:15:20;;;;;;;2.70;1.30;;;16.50;62.20;17.50;97942.00;;;;5010941;28;20205;-45
2023/03/10 10:18:11;;;;;;;1.60;1.40;;;16.50;62.20;17.50;97942.00;;;;5012059;28;20643;-45
2023/03/10 10:20:58;;;;;;;1.60;1.17;;;16.50;62.20;17.50;97944.00;;;;5010781;28;20552;-44
2023/03/10 10:23:36;;;;;;;1.27;1.17;;;16.50;62.10;17.50;97943.00;;;;5010539;28;20193;-46
2023/03/10 10:26:15;;;;;;;2.17;1.30;;;16.60;62.20;17.50;97942.00;;;;5010575;28;20552;-47
2023/03/10 10:28:47;;;;;;;1.40;1.30;;;16.60;62.20;17.50;97925.00;;;;5010536;28;20210;-46
2023/03/10 10:31:28;;;;;;;1.50;1.40;;;16.60;62.30;17.50;97948.00;;;;5010385;28;20264;-45
2023/03/10 10:34:17;;;;;;;1.40;1.30;;;16.60;62.30;17.50;97944.00;;;;5011423;28;20188;-45
2023/03/10 10:36:55;;;;;;;2.20;1.30;;;16.60;62.20;17.50;97944.00;;;;5010316;28;20200;-45
2023/03/10 10:39:31;;;;;;;2.60;1.37;;;16.60;62.20;17.60;97949.00;;;;5011721;28;20563;-45
2023/03/10 10:42:24;;;;;;;1.40;1.30;;;16.60;62.10;17.60;97950.00;;;;5011355;28;20526;-45
2023/03/10 10:45:01;;;;;;;1.73;1.13;;;16.60;62.10;17.60;97948.00;;;;5011169;28;20199;-45
2023/03/10 10:47:30;;;;;;;1.60;1.20;;;16.60;62.10;17.60;97950.00;;;;5011595;28;20288;-44
2023/03/10 10:50:09;;;;;;;1.40;1.30;;;16.70;62.20;17.60;97938.00;;;;5010227;28;20194;-45
2023/03/10 10:52:35;;;;;;;1.70;1.30;;;16.70;62.10;17.60;97936.00;;;;5010926;28;20180;-47
2023/03/10 10:55:01;;;;;;;1.40;1.17;;;16.70;62.30;17.60;97928.00;;;;5004876;28;20209;-46
2023/03/10 10:57:35;;;;;;;2.27;1.40;;;16.70;62.30;17.60;97930.00;;;;5009910;28;20576;-45
2023/03/10 11:00:28;;;;;;;1.77;1.30;;;16.70;62.40;17.60;97943.00;;;;5009989;28;20178;-45